Gokay K — TCHF — position and weather

sailwx.info

Track history (hours):
 
Tides and Currents Weather Stations Pressure Air Temp Water Temp Dewpoint Dewpoint Depression Visibility Wind Speed Wind Dir Waves Ship Positions

Gokay K

Last reported at 2015-Apr-17 19:27 UTC. Time now 2015-Apr-21 19:04 UTC.
Position N 44°44' E 036°23'.

; draft 4.5 m.

Type: Ship. MMSI: 271000029.

Date/timePositionNaut miles runAvg speedWind from/ knotsBaromVisibWave heightAir tempDewpointWater temp
2015-Apr-17 19:27N 44°44' E 036°23'9 9.8
2015-Apr-17 18:30N 44°38' E 036°13'9 9.8
2015-Apr-17 17:33N 44°31' E 036°04'10 9.8
2015-Apr-17 16:33N 44°24' E 035°54'1010.0
2015-Apr-17 15:33N 44°18' E 035°44'1110.1
2015-Apr-17 14:25N 44°10' E 035°32'910.2
2015-Apr-17 13:33N 44°04' E 035°23'1010.2
2015-Apr-17 12:33N 43°57' E 035°13'1010.2
2015-Apr-17 11:33N 43°50' E 035°03'1110.2
2015-Apr-17 10:31N 43°42' E 034°52'  
2015-Apr-14 20:19N 41°19' E 029°39'7 9.2
2015-Apr-14 19:34N 41°18' E 029°30'9 9.3
2015-Apr-14 18:34N 41°17' E 029°18'22 6.5
2015-Apr-14 15:09N 40°59' E 028°60'3 5.5
2015-Apr-14 14:32N 40°56' E 028°58'3 0.8
2015-Apr-14 11:04N 40°57' E 028°55'0 0.0
2015-Apr-14 10:16N 40°57' E 028°55'0 0.0
2015-Apr-14 08:16N 40°57' E 028°55'0 0.0
2015-Apr-14 04:04N 40°57' E 028°55'0 0.0
2015-Apr-14 01:10N 40°57' E 028°55'0 0.0
2015-Apr-13 22:16N 40°57' E 028°55'0 0.0
2015-Apr-13 20:19N 40°57' E 028°55'3 3.4
2015-Apr-13 19:32N 40°55' E 028°57'10 9.6
2015-Apr-13 18:29N 40°50' E 028°45'  
2015-Apr-11 10:22N 40°25' E 029°05'0 0.0
2015-Apr-11 09:28N 40°25' E 029°05'0 0.0
2015-Apr-11 08:28N 40°25' E 029°05'0 0.0
2015-Apr-11 07:28N 40°25' E 029°05'0 0.0
2015-Apr-11 06:22N 40°25' E 029°05'0 0.0
2015-Apr-11 05:16N 40°25' E 029°05'0 0.0
2015-Apr-11 04:28N 40°25' E 029°05'0 0.0
2015-Apr-11 02:10N 40°25' E 029°05'0 0.0
2015-Apr-11 01:28N 40°25' E 029°05'0 0.0
2015-Apr-11 00:28N 40°25' E 029°05'0 0.0
2015-Apr-10 23:22N 40°25' E 029°05'0 0.0
2015-Apr-10 21:22N 40°25' E 029°05'0 0.0
2015-Apr-10 20:10N 40°25' E 029°05'0 0.0
2015-Apr-10 19:28N 40°25' E 029°05'0 0.0
2015-Apr-10 18:22N 40°25' E 029°05'0 0.0
2015-Apr-10 17:16N 40°25' E 029°05'0 0.0
2015-Apr-10 16:22N 40°25' E 029°05'0 0.0
2015-Apr-10 15:28N 40°25' E 029°05'0 0.0
2015-Apr-10 14:10N 40°25' E 029°05'0 0.0
2015-Apr-10 13:04N 40°25' E 029°05'0 0.0
2015-Apr-10 12:28N 40°25' E 029°05'0 0.0
2015-Apr-10 11:04N 40°25' E 029°05'0 0.0
2015-Apr-10 10:28N 40°25' E 029°05'0 0.0
2015-Apr-10 08:28N 40°25' E 029°05'0 0.0
2015-Apr-10 07:22N 40°25' E 029°05'0 0.0
2015-Apr-10 06:04N 40°25' E 029°05'0 0.0
2015-Apr-10 05:28N 40°25' E 029°05'0 0.0
2015-Apr-10 04:22N 40°25' E 029°05'0 0.0
2015-Apr-10 03:22N 40°25' E 029°05'0 0.0
2015-Apr-10 02:28N 40°25' E 029°05'0 0.0
2015-Apr-10 01:22N 40°25' E 029°05'0 0.0
2015-Apr-10 00:28N 40°25' E 029°05'0 0.0
2015-Apr-09 23:28N 40°25' E 029°05'0 0.0
2015-Apr-09 22:28N 40°25' E 029°05'0 0.0
2015-Apr-09 21:28N 40°25' E 029°05'0 0.0
2015-Apr-09 20:22N 40°25' E 029°05'0 0.0
2015-Apr-09 19:22N 40°25' E 029°05'0 0.0
2015-Apr-09 18:16N 40°25' E 029°05'0 0.0
2015-Apr-09 17:28N 40°25' E 029°05'0 0.0
2015-Apr-09 16:28N 40°25' E 029°05'0 0.0
2015-Apr-09 15:22N 40°25' E 029°05'0 0.0
2015-Apr-09 14:28N 40°25' E 029°05'0 0.0
2015-Apr-09 12:04N 40°25' E 029°05'0 0.0
2015-Apr-09 11:22N 40°25' E 029°05'0 0.0
2015-Apr-09 10:22N 40°25' E 029°05'0 0.0
2015-Apr-09 09:28N 40°25' E 029°05'0 0.0
2015-Apr-09 06:28N 40°25' E 029°05'0 0.0
2015-Apr-09 05:22N 40°25' E 029°05'0 0.0
2015-Apr-09 03:22N 40°25' E 029°05'0 0.0
2015-Apr-09 02:04N 40°25' E 029°05'0 0.0
2015-Apr-09 01:22N 40°25' E 029°05'0 0.0
2015-Apr-09 00:28N 40°25' E 029°05'0 0.0
2015-Apr-08 23:22N 40°25' E 029°05'0 0.0
2015-Apr-08 22:28N 40°25' E 029°05'  
Track history (hours):
 
Tides and Currents Weather Stations Pressure Air Temp Water Temp Dewpoint Dewpoint Depression Visibility Wind Speed Wind Dir Waves Ship Positions

Gokay K

Last reported at 2015-Apr-17 19:27 UTC. Time now 2015-Apr-21 19:04 UTC.
Position N 44°44' E 036°23'.

; draft 4.5 m.

Type: Ship. MMSI: 271000029.

Date/timePositionNaut miles runAvg speedWind from/ knotsBaromVisibWave heightAir tempDewpointWater temp
2015-Apr-17 19:27N 44°44' E 036°23'9 9.8
2015-Apr-17 18:30N 44°38' E 036°13'9 9.8
2015-Apr-17 17:33N 44°31' E 036°04'10 9.8
2015-Apr-17 16:33N 44°24' E 035°54'1010.0
2015-Apr-17 15:33N 44°18' E 035°44'1110.1
2015-Apr-17 14:25N 44°10' E 035°32'910.2
2015-Apr-17 13:33N 44°04' E 035°23'1010.2
2015-Apr-17 12:33N 43°57' E 035°13'1010.2
2015-Apr-17 11:33N 43°50' E 035°03'1110.2
2015-Apr-17 10:31N 43°42' E 034°52'  
2015-Apr-14 20:19N 41°19' E 029°39'7 9.2
2015-Apr-14 19:34N 41°18' E 029°30'9 9.3
2015-Apr-14 18:34N 41°17' E 029°18'22 6.5
2015-Apr-14 15:09N 40°59' E 028°60'3 5.5
2015-Apr-14 14:32N 40°56' E 028°58'3 0.8
2015-Apr-14 11:04N 40°57' E 028°55'0 0.0
2015-Apr-14 10:16N 40°57' E 028°55'0 0.0
2015-Apr-14 08:16N 40°57' E 028°55'0 0.0
2015-Apr-14 04:04N 40°57' E 028°55'0 0.0
2015-Apr-14 01:10N 40°57' E 028°55'0 0.0
2015-Apr-13 22:16N 40°57' E 028°55'0 0.0
2015-Apr-13 20:19N 40°57' E 028°55'3 3.4
2015-Apr-13 19:32N 40°55' E 028°57'10 9.6
2015-Apr-13 18:29N 40°50' E 028°45'  
2015-Apr-11 10:22N 40°25' E 029°05'0 0.0
2015-Apr-11 09:28N 40°25' E 029°05'0 0.0
2015-Apr-11 08:28N 40°25' E 029°05'0 0.0
2015-Apr-11 07:28N 40°25' E 029°05'0 0.0
2015-Apr-11 06:22N 40°25' E 029°05'0 0.0
2015-Apr-11 05:16N 40°25' E 029°05'0 0.0
2015-Apr-11 04:28N 40°25' E 029°05'0 0.0
2015-Apr-11 02:10N 40°25' E 029°05'0 0.0
2015-Apr-11 01:28N 40°25' E 029°05'0 0.0
2015-Apr-11 00:28N 40°25' E 029°05'0 0.0
2015-Apr-10 23:22N 40°25' E 029°05'0 0.0
2015-Apr-10 21:22N 40°25' E 029°05'0 0.0
2015-Apr-10 20:10N 40°25' E 029°05'0 0.0
2015-Apr-10 19:28N 40°25' E 029°05'0 0.0
2015-Apr-10 18:22N 40°25' E 029°05'0 0.0
2015-Apr-10 17:16N 40°25' E 029°05'0 0.0
2015-Apr-10 16:22N 40°25' E 029°05'0 0.0
2015-Apr-10 15:28N 40°25' E 029°05'0 0.0
2015-Apr-10 14:10N 40°25' E 029°05'0 0.0
2015-Apr-10 13:04N 40°25' E 029°05'0 0.0
2015-Apr-10 12:28N 40°25' E 029°05'0 0.0
2015-Apr-10 11:04N 40°25' E 029°05'0 0.0
2015-Apr-10 10:28N 40°25' E 029°05'0 0.0
2015-Apr-10 08:28N 40°25' E 029°05'0 0.0
2015-Apr-10 07:22N 40°25' E 029°05'0 0.0
2015-Apr-10 06:04N 40°25' E 029°05'0 0.0
2015-Apr-10 05:28N 40°25' E 029°05'0 0.0
2015-Apr-10 04:22N 40°25' E 029°05'0 0.0
2015-Apr-10 03:22N 40°25' E 029°05'0 0.0
2015-Apr-10 02:28N 40°25' E 029°05'0 0.0
2015-Apr-10 01:22N 40°25' E 029°05'0 0.0
2015-Apr-10 00:28N 40°25' E 029°05'0 0.0
2015-Apr-09 23:28N 40°25' E 029°05'0 0.0
2015-Apr-09 22:28N 40°25' E 029°05'0 0.0
2015-Apr-09 21:28N 40°25' E 029°05'0 0.0
2015-Apr-09 20:22N 40°25' E 029°05'0 0.0
2015-Apr-09 19:22N 40°25' E 029°05'0 0.0
2015-Apr-09 18:16N 40°25' E 029°05'0 0.0
2015-Apr-09 17:28N 40°25' E 029°05'0 0.0
2015-Apr-09 16:28N 40°25' E 029°05'0 0.0
2015-Apr-09 15:22N 40°25' E 029°05'0 0.0
2015-Apr-09 14:28N 40°25' E 029°05'0 0.0
2015-Apr-09 12:04N 40°25' E 029°05'0 0.0
2015-Apr-09 11:22N 40°25' E 029°05'0 0.0
2015-Apr-09 10:22N 40°25' E 029°05'0 0.0
2015-Apr-09 09:28N 40°25' E 029°05'0 0.0
2015-Apr-09 06:28N 40°25' E 029°05'0 0.0
2015-Apr-09 05:22N 40°25' E 029°05'0 0.0
2015-Apr-09 03:22N 40°25' E 029°05'0 0.0
2015-Apr-09 02:04N 40°25' E 029°05'0 0.0
2015-Apr-09 01:22N 40°25' E 029°05'0 0.0
2015-Apr-09 00:28N 40°25' E 029°05'0 0.0
2015-Apr-08 23:22N 40°25' E 029°05'0 0.0
2015-Apr-08 22:28N 40°25' E 029°05'  

Dump ship's entire track history